createdAt,value
2019-02-05T00:01:26.749Z,101910.28
2019-02-05T00:03:56.073Z,101908.53
2019-02-05T00:06:25.412Z,101911.31
2019-02-05T00:08:54.887Z,101908.31
2019-02-05T00:11:24.231Z,101915.09
2019-02-05T00:13:53.554Z,101910.68
2019-02-05T00:16:23.192Z,101912.57
2019-02-05T00:18:52.552Z,101901.52
2019-02-05T00:21:22.439Z,101913.98
2019-02-05T00:23:52.176Z,101922.95
2019-02-05T00:26:22.293Z,101930.18
2019-02-05T00:28:51.825Z,101923.16
2019-02-05T00:31:21.522Z,101926.25
2019-02-05T00:33:51.019Z,101932.34
2019-02-05T00:36:20.671Z,101933.38
2019-02-05T00:38:50.044Z,101940.61
2019-02-05T00:41:19.680Z,101937.59
2019-02-05T00:43:49.088Z,101933.15
2019-02-05T00:46:18.443Z,101932.20
2019-02-05T00:48:48.165Z,101922.44
2019-02-05T00:51:17.742Z,101917.89
2019-02-05T00:53:47.090Z,101917.95
2019-02-05T00:56:17.876Z,101917.25
2019-02-05T00:58:47.557Z,101924.95
2019-02-05T01:01:17.088Z,101921.87
2019-02-05T01:03:48.385Z,101929.37
2019-02-05T01:06:18.252Z,101937.85
2019-02-05T01:08:47.910Z,101941.54
2019-02-05T01:11:17.848Z,101942.09
2019-02-05T01:13:47.227Z,101942.72
2019-02-05T01:16:16.565Z,101946.84
2019-02-05T01:18:48.160Z,101958.76
2019-02-05T01:21:17.488Z,101953.14
2019-02-05T01:23:47.195Z,101959.41
2019-02-05T01:26:28.677Z,101962.52
2019-02-05T01:28:48.842Z,101954.16
2019-02-05T01:31:18.478Z,101956.35
2019-02-05T01:33:48.228Z,101956.35
2019-02-05T01:36:17.506Z,101962.56
2019-02-05T01:38:48.190Z,101958.63
2019-02-05T01:41:17.810Z,101954.22
2019-02-05T01:43:48.350Z,101956.95
2019-02-05T01:46:17.919Z,101954.30
2019-02-05T01:48:47.327Z,101951.63
2019-02-05T01:51:16.677Z,101953.02
2019-02-05T01:53:46.215Z,101949.94
2019-02-05T01:56:16.531Z,101951.70
2019-02-05T01:58:46.352Z,101950.38
2019-02-05T02:01:16.697Z,101954.78
2019-02-05T02:03:46.332Z,101964.08
2019-02-05T02:06:16.665Z,101957.31
2019-02-05T02:08:46.319Z,101959.48
2019-02-05T02:11:16.809Z,101964.27
2019-02-05T02:13:46.446Z,101962.52
2019-02-05T02:16:16.684Z,101961.66
2019-02-05T02:18:46.319Z,101961.66
2019-02-05T02:21:16.628Z,101953.67
2019-02-05T02:23:46.497Z,101957.69
2019-02-05T02:26:16.588Z,101956.35
2019-02-05T02:28:46.169Z,101958.94
2019-02-05T02:31:15.508Z,101963.11
2019-02-05T02:33:45.152Z,101963.11
2019-02-05T02:36:14.495Z,101966.92
2019-02-05T02:38:43.839Z,101961.66
2019-02-05T02:41:13.398Z,101973.28
2019-02-05T02:43:42.739Z,101974.25
2019-02-05T02:46:12.639Z,101979.52
2019-02-05T02:48:42.287Z,101973.09
2019-02-05T02:51:12.644Z,101969.52
2019-02-05T02:53:42.534Z,101976.17
2019-02-05T02:56:11.877Z,101970.31
2019-02-05T02:58:41.428Z,101963.17
2019-02-05T03:01:11.829Z,101965.83
2019-02-05T03:03:41.327Z,101968.47
2019-02-05T03:06:10.662Z,101965.76
2019-02-05T03:08:41.284Z,101960.38
2019-02-05T03:11:10.629Z,101960.38
2019-02-05T03:13:40.286Z,101962.49
2019-02-05T03:16:10.692Z,101965.27
2019-02-05T03:18:42.453Z,101965.27
2019-02-05T03:21:11.783Z,101966.59
2019-02-05T03:23:41.434Z,101969.80
2019-02-05T03:26:10.774Z,101972.47
2019-02-05T03:28:40.736Z,101977.27
2019-02-05T03:31:10.379Z,101970.66
2019-02-05T03:33:39.738Z,101975.62
2019-02-05T03:36:09.366Z,101989.89
2019-02-05T03:38:38.717Z,101980.65
2019-02-05T03:41:08.363Z,101983.67
2019-02-05T03:43:37.713Z,101981.38
2019-02-05T03:46:07.968Z,101981.36
2019-02-05T03:48:37.638Z,101981.25
2019-02-05T03:51:10.147Z,101977.37
2019-02-05T03:53:48.625Z,101967.16
2019-02-05T03:56:40.855Z,101967.58
2019-02-05T03:59:28.843Z,101965.41
2019-02-05T04:02:21.915Z,101967.58
2019-02-05T04:05:12.834Z,101968.49
2019-02-05T04:07:54.597Z,101961.89
2019-02-05T04:10:43.737Z,101971.58
2019-02-05T04:13:43.475Z,101971.58
2019-02-05T04:16:41.948Z,101964.50
2019-02-05T04:19:32.395Z,101961.05
2019-02-05T04:22:22.801Z,101966.84
2019-02-05T04:25:14.824Z,101977.50
2019-02-05T04:27:53.241Z,101967.40
2019-02-05T04:30:32.012Z,101970.98
2019-02-05T04:33:22.451Z,101970.97
2019-02-05T04:36:17.467Z,101965.13
2019-02-05T04:38:52.624Z,101967.78
2019-02-05T04:41:40.823Z,101965.23
2019-02-05T04:44:13.882Z,101968.73
2019-02-05T04:47:05.611Z,101964.81
2019-02-05T04:49:38.449Z,101972.30
2019-02-05T04:52:13.975Z,101974.05
2019-02-05T04:55:07.888Z,101974.44
2019-02-05T04:58:01.994Z,101979.27
2019-02-05T05:00:54.325Z,101979.27
2019-02-05T05:03:43.934Z,101976.17
2019-02-05T05:06:34.855Z,101975.69
2019-02-05T05:09:11.027Z,101981.51
2019-02-05T05:11:41.656Z,101973.27
2019-02-05T05:14:11.821Z,101975.09
2019-02-05T05:16:41.173Z,101975.58
2019-02-05T05:19:11.551Z,101971.77
2019-02-05T05:21:41.160Z,101983.09
2019-02-05T05:24:12.073Z,101982.16
2019-02-05T05:26:41.722Z,101977.08
2019-02-05T05:29:11.081Z,101976.60
2019-02-05T05:31:40.844Z,101983.31
2019-02-05T05:34:10.448Z,101988.16
2019-02-05T05:36:50.330Z,101988.16
2019-02-05T05:39:21.181Z,101992.08
2019-02-05T05:41:51.694Z,101990.67
2019-02-05T05:44:21.052Z,101988.88
2019-02-05T05:46:50.401Z,102003.93
2019-02-05T05:49:20.486Z,102004.48
2019-02-05T05:51:50.781Z,102004.05
2019-02-05T05:54:20.607Z,102002.23
2019-02-05T05:56:50.268Z,102009.26
2019-02-05T05:59:20.111Z,102010.59
2019-02-05T06:01:49.980Z,102022.56
2019-02-05T06:04:19.342Z,102017.66
2019-02-05T06:06:49.031Z,102022.08
2019-02-05T06:09:19.031Z,102020.27
2019-02-05T06:11:48.660Z,102021.55
2019-02-05T06:14:18.319Z,102025.54
2019-02-05T06:16:47.940Z,102036.61
2019-02-05T06:19:28.652Z,102039.33
2019-02-05T06:21:58.935Z,102041.94
2019-02-05T06:24:28.307Z,102040.11
2019-02-05T06:26:58.124Z,102041.94
2019-02-05T06:29:28.076Z,102046.77
2019-02-05T06:31:57.409Z,102052.98
2019-02-05T06:34:27.137Z,102053.00
2019-02-05T06:36:56.798Z,102058.80
2019-02-05T06:39:26.365Z,102055.17
2019-02-05T06:41:55.971Z,102060.98
2019-02-05T06:44:26.289Z,102061.48
2019-02-05T06:46:56.058Z,102058.43
2019-02-05T06:49:25.977Z,102062.81
2019-02-05T06:51:55.368Z,102064.07
2019-02-05T06:54:25.004Z,102060.56
2019-02-05T06:56:54.603Z,102057.95
2019-02-05T06:59:24.315Z,102069.08
2019-02-05T07:01:53.976Z,102069.98
2019-02-05T07:04:24.002Z,102073.02
2019-02-05T07:06:53.371Z,102081.32
2019-02-05T07:09:23.014Z,102095.47
2019-02-05T07:11:52.376Z,102092.76
2019-02-05T07:14:22.019Z,102105.14
2019-02-05T07:16:51.384Z,102108.59
2019-02-05T07:19:21.026Z,102112.48
2019-02-05T07:21:50.667Z,102111.57
2019-02-05T07:24:20.604Z,102111.94
2019-02-05T07:26:50.036Z,102111.94
2019-02-05T07:29:19.367Z,102117.27
2019-02-05T07:31:49.052Z,102116.48
2019-02-05T07:34:21.227Z,102124.94
2019-02-05T07:36:49.752Z,102121.37
2019-02-05T07:39:19.315Z,102127.92
2019-02-05T07:41:48.685Z,102131.11
2019-02-05T07:44:18.350Z,102131.89
2019-02-05T07:46:47.978Z,102139.78
2019-02-05T07:49:17.512Z,102141.47
2019-02-05T07:51:46.964Z,102142.73
2019-02-05T07:54:17.382Z,102148.00
2019-02-05T07:56:47.280Z,102146.72
2019-02-05T07:59:17.407Z,102148.44
2019-02-05T08:01:47.076Z,102151.94
2019-02-05T08:04:16.419Z,102150.07
2019-02-05T08:06:46.065Z,102151.75
2019-02-05T08:09:15.419Z,102153.03
2019-02-05T08:11:44.998Z,102153.94
2019-02-05T08:14:14.416Z,102165.98
2019-02-05T08:16:44.316Z,102158.48
2019-02-05T08:19:15.291Z,102166.42
2019-02-05T08:21:44.932Z,102165.07
2019-02-05T08:24:14.289Z,102164.16
2019-02-05T08:26:43.658Z,102179.72
2019-02-05T08:29:21.356Z,102179.72
2019-02-05T08:31:44.348Z,102185.37
2019-02-05T08:34:14.519Z,102192.92
2019-02-05T08:36:44.305Z,102192.92
2019-02-05T08:39:14.505Z,102194.69
2019-02-05T08:41:44.057Z,102194.27
2019-02-05T08:44:13.984Z,102188.94
2019-02-05T08:46:43.567Z,102194.25
2019-02-05T08:49:13.428Z,102197.73
2019-02-05T08:51:43.318Z,102200.81
2019-02-05T08:54:12.674Z,102203.16
2019-02-05T08:56:42.151Z,102202.69
2019-02-05T08:59:12.504Z,102206.66
2019-02-05T09:01:42.158Z,102206.23
2019-02-05T09:04:11.495Z,102203.64
2019-02-05T09:06:41.161Z,102210.73
2019-02-05T09:09:10.501Z,102216.37
2019-02-05T09:11:40.155Z,102215.39
2019-02-05T09:14:11.687Z,102213.22
2019-02-05T09:16:40.537Z,102207.89
2019-02-05T09:19:10.184Z,102205.17
2019-02-05T09:21:44.162Z,102212.36
2019-02-05T09:24:15.431Z,102210.23
2019-02-05T09:26:45.086Z,102211.14
2019-02-05T09:29:14.446Z,102212.48
2019-02-05T09:31:44.414Z,102213.64
2019-02-05T09:34:13.753Z,102218.42
2019-02-05T09:36:43.288Z,102219.27
2019-02-05T09:39:12.652Z,102221.46
2019-02-05T09:41:42.250Z,102224.13
2019-02-05T09:44:11.590Z,102233.98
2019-02-05T09:46:41.914Z,102236.64
2019-02-05T09:49:11.336Z,102237.50
2019-02-05T09:51:40.686Z,102242.78
2019-02-05T09:54:10.296Z,102245.97
2019-02-05T09:56:41.439Z,102251.30
2019-02-05T09:59:10.791Z,102244.21
2019-02-05T10:01:41.439Z,102242.47
2019-02-05T10:04:10.775Z,102257.72
2019-02-05T10:06:40.409Z,102251.43
2019-02-05T10:09:09.816Z,102255.42
2019-02-05T10:11:39.385Z,102258.46
2019-02-05T10:14:08.727Z,102265.59
2019-02-05T10:16:38.377Z,102260.27
2019-02-05T10:19:08.366Z,102265.48
2019-02-05T10:21:37.970Z,102260.03
2019-02-05T10:24:07.381Z,102267.95
2019-02-05T10:26:36.746Z,102262.03
2019-02-05T10:29:06.621Z,102266.52
2019-02-05T10:31:35.995Z,102269.48
2019-02-05T10:34:05.506Z,102273.91
2019-02-05T10:36:35.106Z,102273.48
2019-02-05T10:39:07.641Z,102280.27
2019-02-05T10:41:37.000Z,102280.39
2019-02-05T10:44:06.474Z,102270.63
2019-02-05T10:46:35.827Z,102274.52
2019-02-05T10:49:05.748Z,102277.66
2019-02-05T10:51:35.478Z,102269.17
2019-02-05T10:54:05.087Z,102265.98
2019-02-05T10:56:34.619Z,102272.27
2019-02-05T10:59:04.334Z,102279.83
2019-02-05T11:01:33.756Z,102274.88
2019-02-05T11:04:03.501Z,102273.00
2019-02-05T11:06:34.689Z,102269.84
2019-02-05T11:09:06.906Z,102275.07
2019-02-05T11:11:36.548Z,102268.88
2019-02-05T11:14:05.972Z,102259.12
2019-02-05T11:16:35.608Z,102259.45
2019-02-05T11:19:05.432Z,102250.95
2019-02-05T11:21:35.118Z,102257.55
2019-02-05T11:24:05.125Z,102263.72
2019-02-05T11:26:36.740Z,102263.97
2019-02-05T11:29:05.818Z,102268.39
2019-02-05T11:31:36.404Z,102263.97
2019-02-05T11:34:05.738Z,102261.30
2019-02-05T11:36:35.971Z,102264.39
2019-02-05T11:39:08.793Z,102270.21
2019-02-05T11:41:38.142Z,102262.16
2019-02-05T11:44:07.728Z,102259.37
2019-02-05T11:46:38.702Z,102259.30
2019-02-05T11:49:08.069Z,102260.10
2019-02-05T11:51:40.234Z,102262.62
2019-02-05T11:54:09.767Z,102270.20
2019-02-05T11:56:39.115Z,102261.41
2019-02-05T11:59:21.171Z,102257.56
2019-02-05T12:01:50.674Z,102262.51
2019-02-05T12:04:20.836Z,102258.41
2019-02-05T12:06:50.610Z,102251.42
2019-02-05T12:09:20.527Z,102237.20
2019-02-05T12:11:49.867Z,102243.42
2019-02-05T12:14:19.219Z,102245.17
2019-02-05T12:16:48.949Z,102249.12
2019-02-05T12:19:18.589Z,102248.21
2019-02-05T12:21:48.191Z,102243.73
2019-02-05T12:24:18.072Z,102245.48
2019-02-05T12:26:47.733Z,102252.39
2019-02-05T12:29:18.138Z,102249.96
2019-02-05T12:31:47.673Z,102249.39
2019-02-05T12:34:18.445Z,102247.64
2019-02-05T12:36:47.785Z,102255.70
2019-02-05T12:39:19.857Z,102250.61
2019-02-05T12:41:49.297Z,102251.45
2019-02-05T12:44:18.954Z,102247.81
2019-02-05T12:46:48.598Z,102253.08
2019-02-05T12:49:18.152Z,102253.98
2019-02-05T12:51:47.807Z,102253.98
2019-02-05T12:54:18.113Z,102246.95
2019-02-05T12:56:47.754Z,102253.15
2019-02-05T12:59:18.284Z,102258.41
2019-02-05T13:01:47.858Z,102258.89
2019-02-05T13:04:18.271Z,102257.94
2019-02-05T13:06:47.751Z,102259.14
2019-02-05T13:09:18.134Z,102260.45
2019-02-05T13:11:47.789Z,102262.22
2019-02-05T13:14:18.204Z,102266.23
2019-02-05T13:16:48.081Z,102268.03
2019-02-05T13:19:19.154Z,102250.59
2019-02-05T13:21:48.856Z,102259.80
2019-02-05T13:24:18.216Z,102259.80
2019-02-05T13:26:47.903Z,102268.17
2019-02-05T13:29:18.310Z,102269.92
2019-02-05T13:31:49.755Z,102266.36
2019-02-05T13:34:19.182Z,102265.78
2019-02-05T13:36:48.790Z,102266.45
2019-02-05T13:39:18.446Z,102265.95
2019-02-05T13:41:49.463Z,102269.47
2019-02-05T13:44:19.126Z,102274.20
2019-02-05T13:46:48.768Z,102278.06
2019-02-05T13:49:18.409Z,102268.22
2019-02-05T13:51:47.867Z,102268.95
2019-02-05T13:54:18.262Z,102270.67
2019-02-05T13:56:47.908Z,102271.06
2019-02-05T13:59:18.337Z,102268.39
2019-02-05T14:01:47.995Z,102267.17
2019-02-05T14:04:18.385Z,102264.39
2019-02-05T14:06:50.466Z,102274.42
2019-02-05T14:09:20.181Z,102271.67
2019-02-05T14:11:49.521Z,102270.78
2019-02-05T14:14:19.355Z,102264.58
2019-02-05T14:16:48.692Z,102274.28
2019-02-05T14:19:20.996Z,102271.09
2019-02-05T14:21:50.333Z,102281.71
2019-02-05T14:24:21.411Z,102282.55
2019-02-05T14:26:50.990Z,102278.66
2019-02-05T14:29:23.846Z,102276.52
2019-02-05T14:31:53.618Z,102279.27
2019-02-05T14:34:23.269Z,102280.60
2019-02-05T14:36:52.611Z,102277.31
2019-02-05T14:39:22.406Z,102281.33
2019-02-05T14:41:51.751Z,102278.55
2019-02-05T14:44:21.479Z,102287.31
2019-02-05T14:46:51.182Z,102287.31
2019-02-05T14:49:20.547Z,102284.72
2019-02-05T14:51:50.138Z,102290.48
2019-02-05T14:54:19.901Z,102296.73
2019-02-05T14:56:49.256Z,102289.20
2019-02-05T14:59:18.619Z,102291.34
2019-02-05T15:01:48.258Z,102299.83
2019-02-05T15:04:18.612Z,102299.83
2019-02-05T15:06:48.172Z,102295.48
2019-02-05T15:09:20.090Z,102299.57
2019-02-05T15:11:50.348Z,102307.16
2019-02-05T15:14:19.691Z,102306.69
2019-02-05T15:16:50.943Z,102304.02
2019-02-05T15:19:20.470Z,102298.23
2019-02-05T15:21:50.072Z,102304.47
2019-02-05T15:24:19.782Z,102303.97
2019-02-05T15:26:49.283Z,102299.91
2019-02-05T15:29:20.272Z,102294.63
2019-02-05T15:31:54.547Z,102298.26
2019-02-05T15:34:21.153Z,102307.58
2019-02-05T15:36:50.493Z,102300.55
2019-02-05T15:39:20.127Z,102299.66
2019-02-05T15:41:49.535Z,102299.23
2019-02-05T15:44:18.839Z,102303.73
2019-02-05T15:46:48.281Z,102294.03
2019-02-05T15:49:18.573Z,102301.55
2019-02-05T15:51:47.920Z,102296.14
2019-02-05T15:54:18.839Z,102304.16
2019-02-05T15:56:48.760Z,102299.71
2019-02-05T15:59:19.020Z,102299.66
2019-02-05T16:01:48.564Z,102296.01
2019-02-05T16:04:18.720Z,102297.73
2019-02-05T16:06:48.379Z,102297.73
2019-02-05T16:09:18.865Z,102297.34
2019-02-05T16:11:48.605Z,102302.27
2019-02-05T16:14:19.549Z,102301.91
2019-02-05T16:16:49.198Z,102304.70
2019-02-05T16:19:20.082Z,102303.84
2019-02-05T16:21:49.672Z,102302.66
2019-02-05T16:24:20.242Z,102305.88
2019-02-05T16:26:49.772Z,102309.88
2019-02-05T16:29:19.443Z,102312.97
2019-02-05T16:31:48.783Z,102312.55
2019-02-05T16:34:19.714Z,102313.41
2019-02-05T16:36:49.415Z,102319.66
2019-02-05T16:39:19.655Z,102315.54
2019-02-05T16:41:49.314Z,102320.09
2019-02-05T16:44:19.904Z,102318.41
2019-02-05T16:46:49.564Z,102313.08
2019-02-05T16:49:22.548Z,102320.12
2019-02-05T16:51:52.288Z,102317.45
2019-02-05T16:54:22.747Z,102323.75
2019-02-05T16:56:54.061Z,102322.00
2019-02-05T16:59:23.696Z,102326.00
2019-02-05T17:02:05.358Z,102336.68
2019-02-05T17:04:34.696Z,102336.31
2019-02-05T17:07:04.780Z,102331.66
2019-02-05T17:09:35.497Z,102334.76
2019-02-05T17:12:05.428Z,102332.56
2019-02-05T17:14:34.764Z,102332.62
2019-02-05T17:17:04.135Z,102328.69
2019-02-05T17:19:33.775Z,102325.60
2019-02-05T17:22:03.756Z,102334.52
2019-02-05T17:24:33.397Z,102327.36
2019-02-05T17:27:02.767Z,102330.99
2019-02-05T17:29:32.673Z,102331.48
2019-02-05T17:32:02.027Z,102331.59
2019-02-05T17:34:31.665Z,102336.52
2019-02-05T17:37:01.260Z,102333.36
2019-02-05T17:39:30.884Z,102332.95
2019-02-05T17:42:00.577Z,102325.44
2019-02-05T17:44:30.212Z,102332.10
2019-02-05T17:47:01.211Z,102333.91
2019-02-05T17:49:30.904Z,102333.05
2019-02-05T17:52:00.558Z,102333.48
2019-02-05T17:54:30.122Z,102327.31
2019-02-05T17:56:59.894Z,102325.59
2019-02-05T17:59:29.231Z,102319.73
2019-02-05T18:02:00.874Z,102318.33
2019-02-05T18:04:30.792Z,102317.85
2019-02-05T18:07:01.301Z,102315.29
2019-02-05T18:09:30.932Z,102319.31
2019-02-05T18:12:00.649Z,102322.94
2019-02-05T18:14:31.241Z,102317.59
2019-02-05T18:17:01.080Z,102323.44
2019-02-05T18:19:31.648Z,102327.84
2019-02-05T18:22:02.511Z,102325.19
2019-02-05T18:24:32.561Z,102323.37
2019-02-05T18:27:02.631Z,102326.03
2019-02-05T18:29:32.061Z,102317.17
2019-02-05T18:32:01.991Z,102325.30
2019-02-05T18:34:34.094Z,102324.41
2019-02-05T18:37:04.048Z,102324.41
2019-02-05T18:39:33.995Z,102324.87
2019-02-05T18:42:03.881Z,102317.78
2019-02-05T18:44:34.513Z,102320.09
2019-02-05T18:47:04.090Z,102321.86
2019-02-05T18:49:33.727Z,102321.48
2019-02-05T18:52:03.113Z,102324.11
2019-02-05T18:54:33.026Z,102314.77
2019-02-05T18:57:02.678Z,102316.03
2019-02-05T18:59:32.305Z,102312.50
2019-02-05T19:02:01.960Z,102316.40
2019-02-05T19:04:31.304Z,102307.12
2019-02-05T19:07:03.755Z,102309.86
2019-02-05T19:09:32.261Z,102304.58
2019-02-05T19:12:05.182Z,102306.45
2019-02-05T19:14:35.401Z,102310.52
2019-02-05T19:17:05.040Z,102314.03
2019-02-05T19:19:44.221Z,102313.98
2019-02-05T19:22:13.986Z,102312.63
2019-02-05T19:24:44.965Z,102313.06
2019-02-05T19:27:14.840Z,102317.37
2019-02-05T19:29:44.176Z,102312.82
2019-02-05T19:32:15.216Z,102314.16
2019-02-05T19:34:44.559Z,102318.88
2019-02-05T19:37:14.099Z,102313.53
2019-02-05T19:39:43.463Z,102309.48
2019-02-05T19:42:13.166Z,102310.87
2019-02-05T19:44:44.702Z,102314.92
2019-02-05T19:47:15.737Z,102315.71
2019-02-05T19:49:45.156Z,102320.10
2019-02-05T19:52:14.777Z,102320.16
2019-02-05T19:54:44.363Z,102319.30
2019-02-05T19:57:13.930Z,102320.28
2019-02-05T19:59:43.923Z,102327.42
2019-02-05T20:02:13.275Z,102331.97
2019-02-05T20:04:42.927Z,102332.38
2019-02-05T20:07:12.266Z,102342.53
2019-02-05T20:09:41.921Z,102336.38
2019-02-05T20:12:11.251Z,102341.72
2019-02-05T20:14:41.319Z,102329.24
2019-02-05T20:17:10.664Z,102331.97
2019-02-05T20:19:40.623Z,102330.16
2019-02-05T20:22:10.132Z,102329.30
2019-02-05T20:24:39.527Z,102326.70
2019-02-05T20:27:09.042Z,102325.31
2019-02-05T20:29:38.394Z,102317.72
2019-02-05T20:32:08.180Z,102319.05
2019-02-05T20:34:38.242Z,102322.45
2019-02-05T20:37:07.879Z,102326.38
2019-02-05T20:39:38.304Z,102319.31
2019-02-05T20:42:07.930Z,102316.02
2019-02-05T20:44:37.678Z,102316.02
2019-02-05T20:47:07.473Z,102318.20
2019-02-05T20:49:38.950Z,102325.60
2019-02-05T20:52:08.309Z,102326.50
2019-02-05T20:54:37.693Z,102325.66
2019-02-05T20:57:07.313Z,102330.50
2019-02-05T20:59:37.270Z,102325.58
2019-02-05T21:02:08.255Z,102329.95
2019-02-05T21:04:47.883Z,102328.62
2019-02-05T21:07:09.557Z,102331.73
2019-02-05T21:09:42.120Z,102332.14
2019-02-05T21:12:10.526Z,102332.20
2019-02-05T21:14:40.175Z,102336.57
2019-02-05T21:17:10.771Z,102338.77
2019-02-05T21:19:50.088Z,102332.56
2019-02-05T21:22:19.567Z,102331.66
2019-02-05T21:24:49.215Z,102334.76
2019-02-05T21:27:19.778Z,102325.11
2019-02-05T21:29:49.186Z,102324.74
2019-02-05T21:32:19.541Z,102332.75
2019-02-05T21:34:49.190Z,102330.57
2019-02-05T21:37:20.168Z,102320.03
2019-02-05T21:39:49.575Z,102328.94
2019-02-05T21:42:19.557Z,102321.83
2019-02-05T21:44:49.196Z,102320.57
2019-02-05T21:47:19.657Z,102325.85
2019-02-05T21:49:49.253Z,102325.31
2019-02-05T21:52:19.578Z,102320.92
2019-02-05T21:54:50.260Z,102318.64
2019-02-05T21:57:19.644Z,102319.16
2019-02-05T21:59:49.368Z,102319.72
2019-02-05T22:02:19.664Z,102317.59
2019-02-05T22:04:49.276Z,102320.20
2019-02-05T22:07:19.637Z,102321.05
2019-02-05T22:09:59.727Z,102329.91
2019-02-05T22:12:30.405Z,102331.30
2019-02-05T22:15:00.019Z,102316.15
2019-02-05T22:17:29.642Z,102310.45
2019-02-05T22:20:16.806Z,102309.59
2019-02-05T22:22:46.257Z,102305.97
2019-02-05T22:25:19.089Z,102311.71
2019-02-05T22:27:48.446Z,102318.77
2019-02-05T22:30:22.598Z,102316.52
2019-02-05T22:32:51.946Z,102322.27
2019-02-05T22:35:21.838Z,102307.53
2019-02-05T22:37:51.796Z,102313.28
2019-02-05T22:40:23.196Z,102313.36
2019-02-05T22:42:52.713Z,102317.78
2019-02-05T22:45:24.962Z,102311.83
2019-02-05T22:47:54.470Z,102311.83
2019-02-05T22:50:26.562Z,102308.13
2019-02-05T22:52:55.910Z,102310.73
2019-02-05T22:55:25.622Z,102308.00
2019-02-05T22:57:55.247Z,102307.09
2019-02-05T23:00:32.524Z,102300.91
2019-02-05T23:03:01.880Z,102301.94
2019-02-05T23:05:43.971Z,102293.28
2019-02-05T23:08:13.365Z,102296.93
2019-02-05T23:11:03.204Z,102293.84
2019-02-05T23:13:25.701Z,102292.49
2019-02-05T23:15:55.639Z,102284.93
2019-02-05T23:18:25.609Z,102284.91
2019-02-05T23:20:55.023Z,102279.95
2019-02-05T23:23:24.848Z,102279.10
2019-02-05T23:25:54.716Z,102275.59
2019-02-05T23:28:24.357Z,102268.09
2019-02-05T23:30:53.893Z,102276.09
2019-02-05T23:33:23.717Z,102269.03
2019-02-05T23:35:53.073Z,102267.17
2019-02-05T23:38:29.739Z,102263.15
2019-02-05T23:40:54.037Z,102263.59
2019-02-05T23:43:23.706Z,102268.92
2019-02-05T23:46:01.334Z,102274.80
2019-02-05T23:48:24.680Z,102274.80
2019-02-05T23:50:54.304Z,102272.98
2019-02-05T23:53:23.816Z,102267.94
2019-02-05T23:55:54.438Z,102265.27
2019-02-05T23:58:23.807Z,102263.56
